createdAt,value
2019-05-01T00:00:28.003Z,24.90
2019-05-01T00:03:12.932Z,24.86
2019-05-01T00:05:44.201Z,24.88
2019-05-01T00:08:13.613Z,24.96
2019-05-01T00:10:43.027Z,24.96
2019-05-01T00:13:12.539Z,24.89
2019-05-01T00:15:42.326Z,24.88
2019-05-01T00:18:11.761Z,24.86
2019-05-01T00:20:41.171Z,24.90
2019-05-01T00:23:08.831Z,24.90
2019-05-01T00:25:38.254Z,24.87
2019-05-01T00:28:07.672Z,24.85
2019-05-01T00:30:37.106Z,24.87
2019-05-01T00:33:06.562Z,24.85
2019-05-01T00:35:35.993Z,24.90
2019-05-01T00:38:05.389Z,24.90
2019-05-01T00:40:34.808Z,24.87
2019-05-01T00:43:04.239Z,24.88
2019-05-01T00:45:33.701Z,24.83
2019-05-01T00:48:03.128Z,24.85
2019-05-01T00:50:32.548Z,24.85
2019-05-01T00:53:01.966Z,24.91
2019-05-01T00:55:50.262Z,24.88
2019-05-01T00:58:43.475Z,24.87
2019-05-01T01:01:29.396Z,24.86
2019-05-01T01:03:58.805Z,24.83
2019-05-01T01:06:28.254Z,24.85
2019-05-01T01:08:57.692Z,24.87
2019-05-01T01:11:27.125Z,24.83
2019-05-01T01:13:56.554Z,24.83
2019-05-01T01:16:25.959Z,24.91
2019-05-01T01:18:55.400Z,24.87
2019-05-01T01:21:24.827Z,24.83
2019-05-01T01:23:54.250Z,24.84
2019-05-01T01:26:23.670Z,24.81
2019-05-01T01:28:53.073Z,24.82
2019-05-01T01:31:22.478Z,24.83
2019-05-01T01:33:51.903Z,24.87
2019-05-01T01:36:21.315Z,24.84
2019-05-01T01:38:50.761Z,24.83
2019-05-01T01:41:20.163Z,24.82
2019-05-01T01:44:11.489Z,24.83
2019-05-01T01:46:41.416Z,24.84
2019-05-01T01:49:10.846Z,24.81
2019-05-01T01:51:40.253Z,24.84
2019-05-01T01:54:09.685Z,24.85
2019-05-01T01:56:39.143Z,24.84
2019-05-01T01:59:08.569Z,24.82
2019-05-01T02:01:59.872Z,24.80
2019-05-01T02:04:56.571Z,24.79
2019-05-01T02:07:26.010Z,24.78
2019-05-01T02:09:55.433Z,24.78
2019-05-01T02:12:24.833Z,24.84
2019-05-01T02:14:54.230Z,24.78
2019-05-01T02:17:23.650Z,24.76
2019-05-01T02:19:53.083Z,24.78
2019-05-01T02:22:22.506Z,24.74
2019-05-01T02:24:51.923Z,24.77
2019-05-01T02:27:29.630Z,24.82
2019-05-01T02:30:01.136Z,24.81
2019-05-01T02:32:30.559Z,24.82
2019-05-01T02:35:00.773Z,24.77
2019-05-01T02:37:30.205Z,24.78
2019-05-01T02:39:59.611Z,24.78
2019-05-01T02:42:29.569Z,24.78
2019-05-01T02:44:59.014Z,24.75
2019-05-01T02:47:29.879Z,24.77
2019-05-01T02:50:05.168Z,24.80
2019-05-01T02:52:36.079Z,24.78
2019-05-01T02:55:08.444Z,24.76
2019-05-01T02:57:37.888Z,24.78
2019-05-01T03:00:07.469Z,24.77
2019-05-01T03:02:36.887Z,24.79
2019-05-01T03:05:06.631Z,24.76
2019-05-01T03:07:36.127Z,24.71
2019-05-01T03:10:09.249Z,24.76
2019-05-01T03:12:38.450Z,24.76
2019-05-01T03:15:08.372Z,24.74
2019-05-01T03:18:02.708Z,24.76
2019-05-01T03:20:39.008Z,24.80
2019-05-01T03:23:14.662Z,24.79
2019-05-01T03:25:44.165Z,24.73
2019-05-01T03:28:13.761Z,24.78
2019-05-01T03:30:43.204Z,24.78
2019-05-01T03:33:12.628Z,24.77
2019-05-01T03:35:42.042Z,24.74
2019-05-01T03:38:11.456Z,24.76
2019-05-01T03:40:40.889Z,24.74
2019-05-01T03:43:10.339Z,24.79
2019-05-01T03:45:40.063Z,24.84
2019-05-01T03:48:09.493Z,24.93
2019-05-01T03:50:39.047Z,24.83
2019-05-01T03:53:08.570Z,24.52
2019-05-01T03:55:38.016Z,23.94
2019-05-01T03:58:07.472Z,23.83
2019-05-01T04:01:07.269Z,23.86
2019-05-01T04:03:41.633Z,23.69
2019-05-01T04:06:11.341Z,23.56
2019-05-01T04:08:40.762Z,23.32
2019-05-01T04:11:10.626Z,23.31
2019-05-01T04:13:40.215Z,23.27
2019-05-01T04:16:09.638Z,23.21
2019-05-01T04:18:39.395Z,23.08
2019-05-01T04:21:09.627Z,22.80
2019-05-01T04:23:39.242Z,22.83
2019-05-01T04:26:08.823Z,22.84
2019-05-01T04:28:51.675Z,22.83
2019-05-01T04:31:46.161Z,22.81
2019-05-01T04:34:25.217Z,22.67
2019-05-01T04:36:56.732Z,22.51
2019-05-01T04:39:26.160Z,22.52
2019-05-01T04:41:55.588Z,22.40
2019-05-01T04:44:25.006Z,22.62
2019-05-01T04:46:54.595Z,22.50
2019-05-01T04:49:24.033Z,22.73
2019-05-01T04:51:53.500Z,22.65
2019-05-01T04:54:23.002Z,22.60
2019-05-01T04:56:52.446Z,22.70
2019-05-01T04:59:21.869Z,22.65
2019-05-01T05:01:56.693Z,22.63
2019-05-01T05:04:25.131Z,22.64
2019-05-01T05:06:54.573Z,22.73
2019-05-01T05:09:41.504Z,22.81
2019-05-01T05:12:15.945Z,22.86
2019-05-01T05:14:48.788Z,22.68
2019-05-01T05:17:21.018Z,22.77
2019-05-01T05:19:50.451Z,22.88
2019-05-01T05:22:19.856Z,22.96
2019-05-01T05:24:49.278Z,23.05
2019-05-01T05:27:18.784Z,23.08
2019-05-01T05:29:48.414Z,23.09
2019-05-01T05:32:18.047Z,23.17
2019-05-01T05:34:47.618Z,23.03
2019-05-01T05:37:23.920Z,22.78
2019-05-01T05:39:53.411Z,22.56
2019-05-01T05:42:22.883Z,22.78
2019-05-01T05:44:52.325Z,23.09
2019-05-01T05:47:21.819Z,23.35
2019-05-01T05:49:51.234Z,23.49
2019-05-01T05:52:31.035Z,23.60
2019-05-01T05:55:07.984Z,23.69
2019-05-01T05:58:00.758Z,23.72
2019-05-01T06:00:41.994Z,23.76
2019-05-01T06:03:31.193Z,23.90
2019-05-01T06:06:07.997Z,23.97
2019-05-01T06:08:37.464Z,23.99
2019-05-01T06:11:29.617Z,24.11
2019-05-01T06:14:14.389Z,24.10
2019-05-01T06:16:59.007Z,24.11
2019-05-01T06:19:33.946Z,24.16
2019-05-01T06:22:20.713Z,24.24
2019-05-01T06:24:53.132Z,24.25
2019-05-01T06:27:22.562Z,24.24
2019-05-01T06:29:51.990Z,24.24
2019-05-01T06:32:21.401Z,24.27
2019-05-01T06:34:50.827Z,24.30
2019-05-01T06:37:20.839Z,24.30
2019-05-01T06:39:51.432Z,24.31
2019-05-01T06:42:21.432Z,24.34
2019-05-01T06:44:59.390Z,24.35
2019-05-01T06:47:38.192Z,24.37
2019-05-01T06:50:27.212Z,24.43
2019-05-01T06:52:59.813Z,24.43
2019-05-01T06:55:28.967Z,24.42
2019-05-01T06:57:58.495Z,24.39
2019-05-01T07:00:27.967Z,24.40
2019-05-01T07:02:57.393Z,24.40
2019-05-01T07:05:26.833Z,24.51
2019-05-01T07:07:56.251Z,24.49
2019-05-01T07:10:31.620Z,24.43
2019-05-01T07:12:59.876Z,24.57
2019-05-01T07:15:28.500Z,24.60
2019-05-01T07:17:57.908Z,24.66
2019-05-01T07:20:47.388Z,24.64
2019-05-01T07:23:18.712Z,24.61
2019-05-01T07:25:48.214Z,24.70
2019-05-01T07:28:17.633Z,24.76
2019-05-01T07:30:59.503Z,24.75
2019-05-01T07:33:28.940Z,24.80
2019-05-01T07:35:58.357Z,24.77
2019-05-01T07:38:27.780Z,24.80
2019-05-01T07:40:58.775Z,24.69
2019-05-01T07:43:45.580Z,24.77
2019-05-01T07:46:20.489Z,24.72
2019-05-01T07:48:49.897Z,24.79
2019-05-01T07:51:19.331Z,24.79
2019-05-01T07:53:48.767Z,24.81
2019-05-01T07:56:18.178Z,24.80
2019-05-01T07:58:51.897Z,24.75
2019-05-01T08:01:41.578Z,24.77
2019-05-01T08:04:13.739Z,24.74
2019-05-01T08:06:42.156Z,24.77
2019-05-01T08:09:15.103Z,24.75
2019-05-01T08:11:44.060Z,24.76
2019-05-01T08:14:16.536Z,24.75
2019-05-01T08:16:45.046Z,24.77
2019-05-01T08:19:22.806Z,24.76
2019-05-01T08:21:57.005Z,24.74
2019-05-01T08:24:27.251Z,24.76
2019-05-01T08:26:56.691Z,24.79
2019-05-01T08:29:50.830Z,24.64
2019-05-01T08:32:40.916Z,24.69
2019-05-01T08:35:12.442Z,24.69
2019-05-01T08:37:41.878Z,24.68
2019-05-01T08:40:11.297Z,24.63
2019-05-01T08:42:42.675Z,24.64
2019-05-01T08:45:22.188Z,24.62
2019-05-01T08:48:01.491Z,24.64
2019-05-01T08:50:30.948Z,24.64
2019-05-01T08:53:00.377Z,24.63
2019-05-01T08:55:29.821Z,24.64
2019-05-01T08:57:59.238Z,24.68
2019-05-01T09:00:30.976Z,24.73
2019-05-01T09:03:08.128Z,24.74
2019-05-01T09:05:33.924Z,24.74
2019-05-01T09:08:02.226Z,24.78
2019-05-01T09:10:31.657Z,24.76
2019-05-01T09:13:01.075Z,24.74
2019-05-01T09:15:30.503Z,24.73
2019-05-01T09:17:59.948Z,24.75
2019-05-01T09:20:29.984Z,24.75
2019-05-01T09:22:59.413Z,24.74
2019-05-01T09:25:38.637Z,24.74
2019-05-01T09:28:17.481Z,24.76
2019-05-01T09:31:01.563Z,24.76
2019-05-01T09:33:30.780Z,24.80
2019-05-01T09:35:58.675Z,24.78
2019-05-01T09:38:28.170Z,24.81
2019-05-01T09:40:57.580Z,24.76
2019-05-01T09:43:30.895Z,24.75
2019-05-01T09:45:58.169Z,24.71
2019-05-01T09:48:27.698Z,24.75
2019-05-01T09:51:06.737Z,24.73
2019-05-01T09:53:48.568Z,24.77
2019-05-01T09:56:21.096Z,24.76
2019-05-01T09:58:50.528Z,24.76
2019-05-01T10:01:24.091Z,24.75
2019-05-01T10:03:54.675Z,24.75
2019-05-01T10:06:22.274Z,24.76
2019-05-01T10:08:51.697Z,24.73
2019-05-01T10:11:21.138Z,24.74
2019-05-01T10:13:53.781Z,24.73
2019-05-01T10:16:21.756Z,24.78
2019-05-01T10:18:51.198Z,24.74
2019-05-01T10:21:22.347Z,24.76
2019-05-01T10:23:52.843Z,24.76
2019-05-01T10:26:25.359Z,24.76
2019-05-01T10:29:21.367Z,24.77
2019-05-01T10:32:16.993Z,24.79
2019-05-01T10:34:56.912Z,24.77
2019-05-01T10:37:28.348Z,24.75
2019-05-01T10:39:57.538Z,24.76
2019-05-01T10:42:26.962Z,24.77
2019-05-01T10:44:56.399Z,24.77
2019-05-01T10:47:25.824Z,24.76
2019-05-01T10:49:55.267Z,24.78
2019-05-01T10:52:24.679Z,24.76
2019-05-01T10:54:54.102Z,24.79
2019-05-01T10:57:23.535Z,24.82
2019-05-01T10:59:52.999Z,24.79
2019-05-01T11:02:22.445Z,24.79
2019-05-01T11:04:51.844Z,24.79
2019-05-01T11:07:21.263Z,24.73
2019-05-01T11:09:50.741Z,24.75
2019-05-01T11:12:20.190Z,24.79
2019-05-01T11:14:49.592Z,24.89
2019-05-01T11:17:19.033Z,24.95
2019-05-01T11:19:48.448Z,25.02
2019-05-01T11:22:17.948Z,24.98
2019-05-01T11:24:47.399Z,25.00
2019-05-01T11:27:16.812Z,24.94
2019-05-01T11:29:46.217Z,24.94
2019-05-01T11:32:25.089Z,25.04
2019-05-01T11:35:10.238Z,25.04
2019-05-01T11:37:51.388Z,24.98
2019-05-01T11:40:39.688Z,25.00
2019-05-01T11:43:09.906Z,25.02
2019-05-01T11:45:39.418Z,25.03
2019-05-01T11:48:08.864Z,25.08
2019-05-01T11:50:38.560Z,25.06
2019-05-01T11:53:07.968Z,25.05
2019-05-01T11:55:37.395Z,25.10
2019-05-01T11:58:06.842Z,25.17
2019-05-01T12:00:36.269Z,25.17
2019-05-01T12:03:05.696Z,25.16
2019-05-01T12:05:35.124Z,25.18
2019-05-01T12:08:04.562Z,25.18
2019-05-01T12:10:33.993Z,25.22
2019-05-01T12:13:03.453Z,25.21
2019-05-01T12:15:32.897Z,25.21
2019-05-01T12:18:02.336Z,25.23
2019-05-01T12:20:31.806Z,25.19
2019-05-01T12:23:01.289Z,25.22
2019-05-01T12:25:30.708Z,25.25
2019-05-01T12:28:00.132Z,25.15
2019-05-01T12:30:29.561Z,25.24
2019-05-01T12:32:59.001Z,25.25
2019-05-01T12:35:28.466Z,25.27
2019-05-01T12:38:00.699Z,25.27
2019-05-01T12:40:30.114Z,25.27
2019-05-01T12:42:59.532Z,25.27
2019-05-01T12:45:28.975Z,25.27
2019-05-01T12:48:03.089Z,25.29
2019-05-01T12:50:32.527Z,25.32
2019-05-01T12:53:14.557Z,25.31
2019-05-01T12:56:02.812Z,25.29
2019-05-01T12:58:32.289Z,25.34
2019-05-01T13:01:01.707Z,25.33
2019-05-01T13:03:31.123Z,25.35
2019-05-01T13:06:00.565Z,25.35
2019-05-01T13:08:29.982Z,25.34
2019-05-01T13:10:59.466Z,25.36
2019-05-01T13:13:28.984Z,25.37
2019-05-01T13:15:58.428Z,25.38
2019-05-01T13:18:27.826Z,25.32
2019-05-01T13:20:57.271Z,25.39
2019-05-01T13:23:26.697Z,25.38
2019-05-01T13:25:59.625Z,25.38
2019-05-01T13:28:56.670Z,25.38
2019-05-01T13:31:32.875Z,25.38
2019-05-01T13:34:02.343Z,25.39
2019-05-01T13:36:31.770Z,25.38
2019-05-01T13:39:01.221Z,25.39
2019-05-01T13:41:30.645Z,25.43
2019-05-01T13:44:00.071Z,25.42
2019-05-01T13:46:29.512Z,25.43
2019-05-01T13:48:58.928Z,25.43
2019-05-01T13:51:28.413Z,25.36
2019-05-01T13:53:57.823Z,25.43
2019-05-01T13:56:27.279Z,25.44
2019-05-01T13:58:56.810Z,25.41
2019-05-01T14:01:26.855Z,25.53
2019-05-01T14:03:56.304Z,25.49
2019-05-01T14:06:25.764Z,25.47
2019-05-01T14:08:55.217Z,25.40
2019-05-01T14:11:24.634Z,25.44
2019-05-01T14:13:54.067Z,25.46
2019-05-01T14:16:23.487Z,25.34
2019-05-01T14:18:52.923Z,25.29
2019-05-01T14:21:44.218Z,25.26
2019-05-01T14:24:44.398Z,25.23
2019-05-01T14:27:13.811Z,25.18
2019-05-01T14:29:43.256Z,25.15
2019-05-01T14:32:12.735Z,25.17
2019-05-01T14:34:42.152Z,25.19
2019-05-01T14:37:11.578Z,25.15
2019-05-01T14:39:41.022Z,25.23
2019-05-01T14:42:10.544Z,25.28
2019-05-01T14:44:39.991Z,25.34
2019-05-01T14:47:09.433Z,25.39
2019-05-01T14:49:38.908Z,25.43
2019-05-01T14:52:08.345Z,25.44
2019-05-01T14:54:37.750Z,25.43
2019-05-01T14:57:07.192Z,25.52
2019-05-01T14:59:36.638Z,25.40
2019-05-01T15:02:06.066Z,25.30
2019-05-01T15:04:35.490Z,25.33
2019-05-01T15:07:04.940Z,25.37
2019-05-01T15:09:34.398Z,25.27
2019-05-01T15:12:05.891Z,25.22
2019-05-01T15:14:57.025Z,25.32
2019-05-01T15:17:48.163Z,25.32
2019-05-01T15:20:17.602Z,25.33
2019-05-01T15:22:47.058Z,25.35
2019-05-01T15:25:16.520Z,25.43
2019-05-01T15:27:47.198Z,25.45
2019-05-01T15:30:18.873Z,25.39
2019-05-01T15:32:48.327Z,25.42
2019-05-01T15:35:17.762Z,25.35
2019-05-01T15:37:56.470Z,25.30
2019-05-01T15:40:26.460Z,25.29
2019-05-01T15:43:02.297Z,25.11
2019-05-01T15:45:31.730Z,25.13
2019-05-01T15:48:01.192Z,25.08
2019-05-01T15:50:30.647Z,24.99
2019-05-01T15:53:00.074Z,24.95
2019-05-01T15:55:29.550Z,24.94
2019-05-01T15:57:58.989Z,24.94
2019-05-01T16:00:28.417Z,24.92
2019-05-01T16:02:57.836Z,24.85
2019-05-01T16:05:27.261Z,24.84
2019-05-01T16:08:08.957Z,24.83
2019-05-01T16:10:32.286Z,24.85
2019-05-01T16:13:02.889Z,24.93
2019-05-01T16:15:35.900Z,24.99
2019-05-01T16:18:05.470Z,25.00
2019-05-01T16:20:34.891Z,25.01
2019-05-01T16:23:04.434Z,25.06
2019-05-01T16:25:33.926Z,24.97
2019-05-01T16:28:03.428Z,25.04
2019-05-01T16:30:32.974Z,25.17
2019-05-01T16:33:02.422Z,25.26
2019-05-01T16:35:31.840Z,25.33
2019-05-01T16:38:03.167Z,25.39
2019-05-01T16:41:03.652Z,25.43
2019-05-01T16:43:33.176Z,25.45
2019-05-01T16:46:02.626Z,25.49
2019-05-01T16:48:32.059Z,25.45
2019-05-01T16:51:01.483Z,25.43
2019-05-01T16:53:31.286Z,25.41
2019-05-01T16:56:01.064Z,25.39
2019-05-01T16:58:31.876Z,25.40
2019-05-01T17:01:08.352Z,25.40
2019-05-01T17:03:55.298Z,25.41
2019-05-01T17:06:45.257Z,25.44
2019-05-01T17:09:32.302Z,25.43
2019-05-01T17:12:01.817Z,25.44
2019-05-01T17:14:31.475Z,25.42
2019-05-01T17:17:01.069Z,25.40
2019-05-01T17:19:30.491Z,25.39
2019-05-01T17:21:59.957Z,25.35
2019-05-01T17:24:29.439Z,25.35
2019-05-01T17:26:59.025Z,25.35
2019-05-01T17:29:28.499Z,25.31
2019-05-01T17:32:00.962Z,25.32
2019-05-01T17:34:32.170Z,25.30
2019-05-01T17:37:01.829Z,25.27
2019-05-01T17:39:31.249Z,25.32
2019-05-01T17:42:02.056Z,25.35
2019-05-01T17:44:31.860Z,25.36
2019-05-01T17:47:01.291Z,25.35
2019-05-01T17:49:30.748Z,25.33
2019-05-01T17:52:00.231Z,25.33
2019-05-01T17:54:29.655Z,25.33
2019-05-01T17:56:59.217Z,25.31
2019-05-01T17:59:28.655Z,25.31
2019-05-01T18:02:23.005Z,25.31
2019-05-01T18:05:11.253Z,25.32
2019-05-01T18:07:40.765Z,25.30
2019-05-01T18:10:10.295Z,25.32
2019-05-01T18:12:39.721Z,25.32
2019-05-01T18:15:09.112Z,25.34
2019-05-01T18:17:38.566Z,25.33
2019-05-01T18:20:08.106Z,25.33
2019-05-01T18:23:14.674Z,25.32
2019-05-01T18:25:50.953Z,25.29
2019-05-01T18:28:33.730Z,25.32
2019-05-01T18:31:03.734Z,25.30
2019-05-01T18:33:33.195Z,25.31
2019-05-01T18:36:02.899Z,25.31
2019-05-01T18:38:48.706Z,25.30
2019-05-01T18:41:25.924Z,25.29
2019-05-01T18:43:55.367Z,25.28
2019-05-01T18:46:24.855Z,25.28
2019-05-01T18:48:54.318Z,25.27
2019-05-01T18:51:23.756Z,25.28
2019-05-01T18:53:57.487Z,25.26
2019-05-01T18:56:24.311Z,25.26
2019-05-01T18:58:54.215Z,25.23
2019-05-01T19:01:23.632Z,25.21
2019-05-01T19:03:53.087Z,25.22
2019-05-01T19:06:22.533Z,25.23
2019-05-01T19:08:51.945Z,25.23
2019-05-01T19:11:21.415Z,25.23
2019-05-01T19:13:50.901Z,25.24
2019-05-01T19:16:20.345Z,25.25
2019-05-01T19:18:49.772Z,25.28
2019-05-01T19:21:23.613Z,25.24
2019-05-01T19:23:52.162Z,25.26
2019-05-01T19:26:21.723Z,25.29
2019-05-01T19:28:51.169Z,25.28
2019-05-01T19:31:21.417Z,25.31
2019-05-01T19:33:50.906Z,25.28
2019-05-01T19:36:20.328Z,25.29
2019-05-01T19:38:49.761Z,25.25
2019-05-01T19:41:19.197Z,25.23
2019-05-01T19:43:48.613Z,25.24
2019-05-01T19:46:18.041Z,25.21
2019-05-01T19:48:50.832Z,25.22
2019-05-01T19:51:19.205Z,25.22
2019-05-01T19:53:51.595Z,25.23
2019-05-01T19:56:22.647Z,25.18
2019-05-01T19:58:52.141Z,25.19
2019-05-01T20:01:21.645Z,25.18
2019-05-01T20:03:51.087Z,25.22
2019-05-01T20:06:20.549Z,25.22
2019-05-01T20:08:49.931Z,25.24
2019-05-01T20:11:19.361Z,25.23
2019-05-01T20:13:48.806Z,25.23
2019-05-01T20:16:19.902Z,25.23
2019-05-01T20:18:49.342Z,25.24
2019-05-01T20:21:18.817Z,25.27
2019-05-01T20:23:48.259Z,25.30
2019-05-01T20:26:17.723Z,25.30
2019-05-01T20:28:47.240Z,25.28
2019-05-01T20:31:17.944Z,25.28
2019-05-01T20:33:47.816Z,25.27
2019-05-01T20:36:17.271Z,25.27
2019-05-01T20:38:46.991Z,25.28
2019-05-01T20:41:18.096Z,25.27
2019-05-01T20:43:47.649Z,25.31
2019-05-01T20:46:21.368Z,25.21
2019-05-01T20:48:48.229Z,25.24
2019-05-01T20:51:20.166Z,25.28
2019-05-01T20:53:48.802Z,25.29
2019-05-01T20:56:35.202Z,25.30
2019-05-01T20:59:04.992Z,25.28
2019-05-01T21:01:34.503Z,25.28
2019-05-01T21:04:18.028Z,25.26
2019-05-01T21:07:00.574Z,25.26
2019-05-01T21:09:46.813Z,25.23
2019-05-01T21:12:05.911Z,25.25
2019-05-01T21:14:35.307Z,25.23
2019-05-01T21:17:09.569Z,25.26
2019-05-01T21:19:37.749Z,25.24
2019-05-01T21:22:07.017Z,25.27
2019-05-01T21:24:36.445Z,25.25
2019-05-01T21:27:05.872Z,25.24
2019-05-01T21:29:35.307Z,25.21
2019-05-01T21:32:04.714Z,25.25
2019-05-01T21:34:34.133Z,25.24
2019-05-01T21:37:03.567Z,25.27
2019-05-01T21:39:33.501Z,25.27
2019-05-01T21:42:06.898Z,25.29
2019-05-01T21:44:34.061Z,25.27
2019-05-01T21:47:04.076Z,25.23
2019-05-01T21:49:33.497Z,25.23
2019-05-01T21:52:03.681Z,25.27
2019-05-01T21:54:34.222Z,25.25
2019-05-01T21:57:03.643Z,25.28
2019-05-01T21:59:35.172Z,25.26
2019-05-01T22:02:05.487Z,25.30
2019-05-01T22:04:35.377Z,25.28
2019-05-01T22:07:05.490Z,25.31
2019-05-01T22:09:35.099Z,25.30
2019-05-01T22:12:08.181Z,25.30
2019-05-01T22:14:43.962Z,25.26
2019-05-01T22:17:20.729Z,25.25
2019-05-01T22:19:50.153Z,25.24
2019-05-01T22:22:43.682Z,25.25
2019-05-01T22:25:17.470Z,25.24
2019-05-01T22:27:53.824Z,25.27
2019-05-01T22:30:46.413Z,25.26
2019-05-01T22:33:16.353Z,25.26
2019-05-01T22:35:47.940Z,25.25
2019-05-01T22:38:17.356Z,25.24
2019-05-01T22:41:06.570Z,25.24
2019-05-01T22:43:32.132Z,25.26
2019-05-01T22:46:03.359Z,25.23
2019-05-01T22:48:33.094Z,25.24
2019-05-01T22:51:39.415Z,25.24
2019-05-01T22:54:08.852Z,25.25
2019-05-01T22:56:38.365Z,25.21
2019-05-01T22:59:07.794Z,25.26
2019-05-01T23:01:37.302Z,25.25
2019-05-01T23:04:12.194Z,25.23
2019-05-01T23:06:41.761Z,25.21
2019-05-01T23:09:10.465Z,25.19
2019-05-01T23:11:42.202Z,25.19
2019-05-01T23:14:12.008Z,25.19
2019-05-01T23:16:54.707Z,25.23
2019-05-01T23:19:27.827Z,25.21
2019-05-01T23:21:58.197Z,25.18
2019-05-01T23:24:26.441Z,25.17
2019-05-01T23:26:55.868Z,25.17
2019-05-01T23:29:25.303Z,25.17
2019-05-01T23:31:54.806Z,25.17
2019-05-01T23:34:26.240Z,25.18
2019-05-01T23:36:55.399Z,25.16
2019-05-01T23:39:24.838Z,25.19
2019-05-01T23:41:54.263Z,25.16
2019-05-01T23:44:23.691Z,25.17
2019-05-01T23:46:53.123Z,25.16
2019-05-01T23:49:22.565Z,25.16
2019-05-01T23:51:51.976Z,25.18
2019-05-01T23:54:21.404Z,25.16
2019-05-01T23:56:50.844Z,25.15
2019-05-01T23:59:20.305Z,25.17
